createdAt,value
2022-12-25T00:01:32.259Z,1.77
2022-12-25T00:03:59.662Z,1.50
2022-12-25T00:06:27.212Z,1.67
2022-12-25T00:08:54.254Z,1.70
2022-12-25T00:11:21.964Z,1.75
2022-12-25T00:13:49.397Z,1.75
2022-12-25T00:16:25.542Z,1.63
2022-12-25T00:18:53.832Z,1.58
2022-12-25T00:21:21.667Z,1.38
2022-12-25T00:23:54.529Z,1.73
2022-12-25T00:26:22.744Z,1.80
2022-12-25T00:28:53.978Z,1.60
2022-12-25T00:31:22.856Z,1.70
2022-12-25T00:33:51.649Z,1.65
2022-12-25T00:36:21.785Z,1.60
2022-12-25T00:38:49.284Z,1.75
2022-12-25T00:41:42.431Z,1.60
2022-12-25T00:44:13.704Z,1.60
2022-12-25T00:46:41.675Z,1.63
2022-12-25T00:49:09.262Z,1.67
2022-12-25T00:51:36.634Z,1.48
2022-12-25T00:54:03.900Z,1.70
2022-12-25T00:56:30.857Z,1.42
2022-12-25T00:58:57.877Z,1.65
2022-12-25T01:01:24.913Z,1.90
2022-12-25T01:03:51.850Z,1.60
2022-12-25T01:06:18.725Z,1.48
2022-12-25T01:09:04.303Z,1.50
2022-12-25T01:11:32.246Z,1.40
2022-12-25T01:13:59.453Z,1.55
2022-12-25T01:16:26.891Z,1.23
2022-12-25T01:18:53.841Z,1.42
2022-12-25T01:21:22.027Z,1.40
2022-12-25T01:23:52.550Z,1.38
2022-12-25T01:26:22.696Z,1.55
2022-12-25T01:28:51.194Z,1.48
2022-12-25T01:31:21.835Z,1.42
2022-12-25T01:33:49.263Z,1.50
2022-12-25T01:36:24.311Z,1.40
2022-12-25T01:38:53.643Z,1.30
2022-12-25T01:41:24.117Z,1.42
2022-12-25T01:44:07.878Z,1.40
2022-12-25T01:46:35.867Z,1.33
2022-12-25T01:49:18.780Z,1.75
2022-12-25T01:51:53.803Z,1.30
2022-12-25T01:54:41.622Z,1.25
2022-12-25T01:57:23.917Z,1.35
2022-12-25T01:59:52.050Z,1.30
2022-12-25T02:02:19.677Z,1.38
2022-12-25T02:05:04.065Z,1.20
2022-12-25T02:07:35.183Z,1.40
2022-12-25T02:10:02.171Z,1.25
2022-12-25T02:12:33.840Z,1.30
2022-12-25T02:15:15.339Z,1.55
2022-12-25T02:17:58.191Z,1.40
2022-12-25T02:21:06.080Z,1.10
2022-12-25T02:24:21.895Z,1.00
2022-12-25T02:27:08.221Z,1.30
2022-12-25T02:29:46.762Z,1.50
2022-12-25T02:32:35.565Z,1.40
2022-12-25T02:35:25.173Z,1.30
2022-12-25T02:38:08.876Z,1.10
2022-12-25T02:40:47.455Z,1.33
2022-12-25T02:43:49.875Z,1.27
2022-12-25T02:46:41.951Z,1.27
2022-12-25T02:49:42.724Z,1.40
2022-12-25T02:52:38.434Z,1.30
2022-12-25T02:55:34.155Z,1.10
2022-12-25T02:58:32.176Z,1.10
2022-12-25T03:01:34.075Z,1.20
2022-12-25T03:04:25.943Z,1.00
2022-12-25T03:07:04.639Z,1.20
2022-12-25T03:10:02.930Z,1.10
2022-12-25T03:12:40.947Z,1.30
2022-12-25T03:15:32.230Z,1.35
2022-12-25T03:18:05.192Z,1.02
2022-12-25T03:20:51.810Z,1.10
2022-12-25T03:23:46.992Z,1.00
2022-12-25T03:26:32.938Z,1.17
2022-12-25T03:29:00.012Z,1.15
2022-12-25T03:31:50.933Z,1.38
2022-12-25T03:35:00.264Z,1.00
2022-12-25T03:38:17.808Z,1.48
2022-12-25T03:41:27.074Z,1.30
2022-12-25T03:44:35.379Z,1.17
2022-12-25T03:47:38.534Z,0.82
2022-12-25T03:50:44.552Z,0.90
2022-12-25T03:53:40.282Z,1.30
2022-12-25T03:56:27.993Z,1.08
2022-12-25T03:59:23.167Z,0.90
2022-12-25T04:02:10.618Z,1.20
2022-12-25T04:04:57.332Z,1.15
2022-12-25T04:07:43.072Z,1.08
2022-12-25T04:10:29.900Z,1.08
2022-12-25T04:13:15.500Z,1.17
2022-12-25T04:16:01.265Z,1.17
2022-12-25T04:18:46.678Z,1.15
2022-12-25T04:21:32.153Z,0.90
2022-12-25T04:24:17.976Z,1.13
2022-12-25T04:27:03.727Z,0.90
2022-12-25T04:29:48.985Z,0.90
2022-12-25T04:32:34.649Z,1.00
2022-12-25T04:35:20.232Z,0.90
2022-12-25T04:37:47.377Z,0.82
2022-12-25T04:40:14.717Z,1.10
2022-12-25T04:42:41.612Z,1.02
2022-12-25T04:45:09.868Z,1.10
2022-12-25T04:47:36.817Z,0.98
2022-12-25T04:50:04.421Z,1.00
2022-12-25T04:52:37.282Z,1.08
2022-12-25T04:55:05.433Z,1.00
2022-12-25T04:57:33.250Z,0.90
2022-12-25T05:00:00.339Z,0.80
2022-12-25T05:02:27.351Z,0.90
2022-12-25T05:04:54.454Z,0.98
2022-12-25T05:07:21.369Z,0.75
2022-12-25T05:09:48.276Z,0.90
2022-12-25T05:12:15.273Z,0.80
2022-12-25T05:14:42.307Z,0.80
2022-12-25T05:17:09.301Z,0.60
2022-12-25T05:19:36.248Z,0.95
2022-12-25T05:22:03.169Z,0.90
2022-12-25T05:24:30.194Z,0.95
2022-12-25T05:26:57.095Z,1.00
2022-12-25T05:29:24.002Z,1.10
2022-12-25T05:31:50.966Z,0.88
2022-12-25T05:34:17.881Z,0.90
2022-12-25T05:36:44.743Z,0.80
2022-12-25T05:39:11.793Z,0.80
2022-12-25T05:41:38.739Z,0.70
2022-12-25T05:44:05.694Z,0.80
2022-12-25T05:46:32.600Z,0.95
2022-12-25T05:48:59.559Z,0.70
2022-12-25T05:51:26.704Z,1.08
2022-12-25T05:53:53.611Z,1.00
2022-12-25T05:56:20.473Z,0.93
2022-12-25T05:58:47.675Z,0.85
2022-12-25T06:01:21.870Z,0.80
2022-12-25T06:03:48.994Z,0.80
2022-12-25T06:06:16.284Z,0.88
2022-12-25T06:08:43.599Z,0.73
2022-12-25T06:11:13.197Z,0.90
2022-12-25T06:13:40.375Z,0.95
2022-12-25T06:16:12.199Z,0.68
2022-12-25T06:18:44.237Z,0.70
2022-12-25T06:21:14.668Z,0.73
2022-12-25T06:23:42.619Z,0.80
2022-12-25T06:26:16.963Z,0.70
2022-12-25T06:28:44.759Z,0.80
2022-12-25T06:31:22.194Z,0.63
2022-12-25T06:33:49.612Z,0.80
2022-12-25T06:36:20.813Z,0.90
2022-12-25T06:38:49.896Z,0.80
2022-12-25T06:41:23.531Z,0.60
2022-12-25T06:43:53.816Z,0.90
2022-12-25T06:46:22.215Z,0.70
2022-12-25T06:48:49.985Z,0.80
2022-12-25T06:51:26.388Z,0.75
2022-12-25T06:53:55.133Z,0.70
2022-12-25T06:56:28.148Z,0.82
2022-12-25T06:58:59.403Z,0.73
2022-12-25T07:02:02.907Z,0.73
2022-12-25T07:04:39.004Z,0.80
2022-12-25T07:07:09.658Z,0.88
2022-12-25T07:09:38.997Z,0.65
2022-12-25T07:12:18.549Z,0.82
2022-12-25T07:14:49.027Z,0.70
2022-12-25T07:17:17.834Z,0.80
2022-12-25T07:19:46.193Z,0.70
2022-12-25T07:22:14.544Z,0.80
2022-12-25T07:24:41.686Z,0.88
2022-12-25T07:27:08.753Z,0.90
2022-12-25T07:29:35.657Z,0.80
2022-12-25T07:32:02.582Z,0.80
2022-12-25T07:34:29.578Z,0.60
2022-12-25T07:36:56.528Z,0.80
2022-12-25T07:39:23.855Z,0.70
2022-12-25T07:41:51.302Z,0.70
2022-12-25T07:44:18.619Z,0.77
2022-12-25T07:46:45.885Z,0.75
2022-12-25T07:49:13.200Z,0.85
2022-12-25T07:51:40.481Z,0.80
2022-12-25T07:54:07.475Z,0.75
2022-12-25T07:56:34.508Z,0.90
2022-12-25T07:59:01.577Z,1.00
2022-12-25T08:01:29.661Z,0.70
2022-12-25T08:04:01.982Z,0.93
2022-12-25T08:06:35.189Z,0.70
2022-12-25T08:09:12.031Z,0.80
2022-12-25T08:11:44.285Z,0.93
2022-12-25T08:14:11.152Z,0.70
2022-12-25T08:16:42.217Z,0.73
2022-12-25T08:19:10.634Z,0.77
2022-12-25T08:21:38.464Z,0.80
2022-12-25T08:24:05.907Z,0.55
2022-12-25T08:26:32.916Z,0.85
2022-12-25T08:28:59.968Z,0.60
2022-12-25T08:31:29.693Z,0.70
2022-12-25T08:33:58.891Z,0.68
2022-12-25T08:36:26.347Z,0.88
2022-12-25T08:38:57.050Z,0.68
2022-12-25T08:41:28.252Z,0.60
2022-12-25T08:43:58.247Z,0.70
2022-12-25T08:46:25.283Z,0.80
2022-12-25T08:48:52.490Z,0.93
2022-12-25T08:51:23.258Z,1.13
2022-12-25T08:53:52.494Z,0.80
2022-12-25T08:56:20.710Z,0.95
2022-12-25T08:58:47.730Z,1.20
2022-12-25T09:01:15.123Z,1.00
2022-12-25T09:03:43.456Z,1.10
2022-12-25T09:06:14.715Z,1.17
2022-12-25T09:08:48.812Z,1.20
2022-12-25T09:11:18.356Z,1.17
2022-12-25T09:13:45.476Z,1.08
2022-12-25T09:16:18.465Z,1.30
2022-12-25T09:18:45.587Z,1.23
2022-12-25T09:21:15.022Z,1.67
2022-12-25T09:23:42.723Z,1.10
2022-12-25T09:26:14.903Z,1.33
2022-12-25T09:28:50.197Z,1.40
2022-12-25T09:31:22.508Z,1.20
2022-12-25T09:33:51.107Z,1.60
2022-12-25T09:36:18.452Z,1.30
2022-12-25T09:38:48.261Z,1.25
2022-12-25T09:41:40.809Z,1.38
2022-12-25T09:44:19.607Z,1.35
2022-12-25T09:47:01.120Z,1.42
2022-12-25T09:49:46.833Z,1.70
2022-12-25T09:52:24.266Z,1.50
2022-12-25T09:55:21.129Z,1.48
2022-12-25T09:57:56.591Z,1.70
2022-12-25T10:00:30.879Z,1.90
2022-12-25T10:03:20.444Z,1.60
2022-12-25T10:06:14.498Z,1.27
2022-12-25T10:09:14.252Z,1.40
2022-12-25T10:12:23.831Z,1.50
2022-12-25T10:15:12.741Z,1.30
2022-12-25T10:18:13.618Z,1.50
2022-12-25T10:20:55.513Z,1.58
2022-12-25T10:23:39.200Z,1.38
2022-12-25T10:26:20.293Z,1.60
2022-12-25T10:29:22.196Z,1.83
2022-12-25T10:31:54.177Z,1.85
2022-12-25T10:34:23.240Z,1.27
2022-12-25T10:36:51.203Z,1.75
2022-12-25T10:39:21.523Z,1.90
2022-12-25T10:42:31.138Z,1.83
2022-12-25T10:45:02.108Z,1.50
2022-12-25T10:47:38.060Z,1.52
2022-12-25T10:50:26.126Z,1.50
2022-12-25T10:53:06.218Z,1.77
2022-12-25T10:55:33.462Z,1.60
2022-12-25T10:58:02.141Z,1.75
2022-12-25T11:00:32.343Z,2.42
2022-12-25T11:02:59.977Z,2.10
2022-12-25T11:05:28.562Z,1.77
2022-12-25T11:07:57.106Z,1.75
2022-12-25T11:10:32.948Z,1.70
2022-12-25T11:13:02.647Z,1.85
2022-12-25T11:15:46.156Z,1.67
2022-12-25T11:18:23.725Z,1.80
2022-12-25T11:21:00.417Z,1.60
2022-12-25T11:23:32.854Z,1.85
2022-12-25T11:26:08.346Z,1.70
2022-12-25T11:28:42.153Z,1.45
2022-12-25T11:31:29.437Z,1.50
2022-12-25T11:34:44.503Z,1.50
2022-12-25T11:37:20.512Z,1.40
2022-12-25T11:39:47.829Z,1.50
2022-12-25T11:42:26.385Z,1.80
2022-12-25T11:45:18.886Z,1.80
2022-12-25T11:47:54.327Z,1.50
2022-12-25T11:50:48.267Z,1.48
2022-12-25T11:53:22.914Z,1.30
2022-12-25T11:55:57.191Z,1.50
2022-12-25T11:58:39.010Z,1.42
2022-12-25T12:01:39.788Z,1.50
2022-12-25T12:04:25.790Z,1.50
2022-12-25T12:07:14.852Z,1.45
2022-12-25T12:10:13.870Z,1.40
2022-12-25T12:13:05.624Z,1.50
2022-12-25T12:15:47.037Z,1.15
2022-12-25T12:18:27.531Z,1.50
2022-12-25T12:21:06.262Z,1.70
2022-12-25T12:23:50.636Z,1.45
2022-12-25T12:26:27.961Z,1.17
2022-12-25T12:28:59.877Z,1.30
2022-12-25T12:31:41.904Z,1.50
2022-12-25T12:34:30.715Z,1.40
2022-12-25T12:37:33.035Z,1.45
2022-12-25T12:40:05.378Z,1.20
2022-12-25T12:42:46.312Z,1.40
2022-12-25T12:45:23.710Z,1.42
2022-12-25T12:47:53.316Z,1.30
2022-12-25T12:50:39.666Z,1.20
2022-12-25T12:53:24.726Z,1.20
2022-12-25T12:55:52.719Z,1.10
2022-12-25T12:58:37.836Z,1.42
2022-12-25T13:01:30.001Z,1.50
2022-12-25T13:04:40.557Z,1.13
2022-12-25T13:07:54.023Z,1.30
2022-12-25T13:10:57.137Z,1.23
2022-12-25T13:13:34.355Z,1.27
2022-12-25T13:16:01.472Z,1.02
2022-12-25T13:18:28.645Z,1.00
2022-12-25T13:21:05.132Z,1.27
2022-12-25T13:23:37.840Z,1.50
2022-12-25T13:26:13.910Z,1.40
2022-12-25T13:28:41.294Z,1.20
2022-12-25T13:31:18.943Z,1.10
2022-12-25T13:33:50.769Z,1.17
2022-12-25T13:36:18.031Z,1.40
2022-12-25T13:38:52.450Z,1.25
2022-12-25T13:41:43.450Z,1.10
2022-12-25T13:44:27.868Z,1.55
2022-12-25T13:46:54.949Z,1.00
2022-12-25T13:49:24.536Z,1.30
2022-12-25T13:51:51.836Z,1.10
2022-12-25T13:54:19.613Z,1.13
2022-12-25T13:56:53.811Z,1.00
2022-12-25T13:59:25.329Z,1.20
2022-12-25T14:01:54.230Z,1.20
2022-12-25T14:04:24.451Z,1.13
2022-12-25T14:06:52.606Z,1.13
2022-12-25T14:09:20.316Z,1.25
2022-12-25T14:11:53.498Z,1.08
2022-12-25T14:14:25.560Z,1.00
2022-12-25T14:16:57.870Z,1.20
2022-12-25T14:19:31.569Z,1.10
2022-12-25T14:22:22.603Z,0.98
2022-12-25T14:24:50.044Z,1.15
2022-12-25T14:27:30.512Z,1.25
2022-12-25T14:30:00.554Z,1.00
2022-12-25T14:32:40.832Z,1.08
2022-12-25T14:35:11.903Z,1.20
2022-12-25T14:37:41.248Z,1.20
2022-12-25T14:40:30.995Z,1.10
2022-12-25T14:43:05.095Z,1.00
2022-12-25T14:45:38.467Z,1.00
2022-12-25T14:48:25.261Z,0.75
2022-12-25T14:51:18.007Z,0.98
2022-12-25T14:53:56.242Z,1.02
2022-12-25T14:56:26.609Z,0.90
2022-12-25T14:58:59.319Z,0.80
2022-12-25T15:01:35.846Z,1.08
2022-12-25T15:04:12.067Z,0.90
2022-12-25T15:07:07.387Z,0.90
2022-12-25T15:09:36.194Z,0.88
2022-12-25T15:12:03.981Z,1.08
2022-12-25T15:14:31.563Z,1.17
2022-12-25T15:17:01.498Z,0.90
2022-12-25T15:19:37.627Z,1.00
2022-12-25T15:22:06.038Z,1.10
2022-12-25T15:24:33.025Z,1.00
2022-12-25T15:27:00.735Z,1.38
2022-12-25T15:32:22.920Z,1.08
2022-12-25T15:34:50.687Z,1.10
2022-12-25T15:37:19.038Z,1.30
2022-12-25T15:39:46.483Z,1.20
2022-12-25T15:42:23.173Z,1.00
2022-12-25T15:44:50.396Z,1.15
2022-12-25T15:47:22.948Z,1.30
2022-12-25T15:49:50.001Z,1.20
2022-12-25T15:52:18.224Z,1.00
2022-12-25T15:54:45.177Z,0.95
2022-12-25T15:57:23.077Z,0.93
2022-12-25T15:59:49.901Z,1.00
2022-12-25T16:02:21.054Z,1.23
2022-12-25T16:08:48.118Z,1.00
2022-12-25T16:15:38.578Z,1.10
2022-12-25T16:18:06.447Z,0.98
2022-12-25T16:20:34.723Z,0.90
2022-12-25T16:23:01.691Z,0.90
2022-12-25T16:25:28.685Z,1.10
2022-12-25T16:27:55.639Z,1.00
2022-12-25T16:30:22.636Z,1.13
2022-12-25T16:32:50.608Z,1.25
2022-12-25T16:35:17.944Z,1.10
2022-12-25T16:37:45.056Z,1.08
2022-12-25T16:40:12.206Z,1.45
2022-12-25T16:42:39.217Z,0.93
2022-12-25T16:45:06.874Z,1.00
2022-12-25T16:47:33.921Z,1.00
2022-12-25T16:50:00.847Z,1.13
2022-12-25T16:52:27.814Z,1.33
2022-12-25T16:54:54.802Z,1.17
2022-12-25T16:57:21.684Z,1.10
2022-12-25T16:59:49.001Z,1.30
2022-12-25T17:02:19.471Z,1.17
2022-12-25T17:04:48.687Z,1.17
2022-12-25T17:07:17.449Z,1.20
2022-12-25T17:09:48.930Z,1.00
2022-12-25T17:12:16.485Z,1.27
2022-12-25T17:14:43.623Z,1.10
2022-12-25T17:17:10.582Z,1.23
2022-12-25T17:19:38.041Z,1.23
2022-12-25T17:22:05.021Z,0.90
2022-12-25T17:24:34.900Z,1.10
2022-12-25T17:27:02.225Z,0.82
2022-12-25T17:29:29.519Z,1.05
2022-12-25T17:31:56.555Z,0.93
2022-12-25T17:34:23.480Z,1.02
2022-12-25T17:36:50.376Z,1.42
2022-12-25T17:39:17.355Z,0.95
2022-12-25T17:41:44.343Z,0.95
2022-12-25T17:44:11.468Z,1.10
2022-12-25T17:46:38.433Z,1.10
2022-12-25T17:49:06.126Z,1.17
2022-12-25T17:51:33.053Z,1.35
2022-12-25T17:54:05.180Z,0.93
2022-12-25T17:56:33.546Z,1.10
2022-12-25T17:59:08.132Z,1.40
2022-12-25T18:01:38.640Z,1.00
2022-12-25T18:04:06.957Z,1.27
2022-12-25T18:06:38.827Z,1.08
2022-12-25T18:09:07.267Z,1.20
2022-12-25T18:11:39.253Z,1.23
2022-12-25T18:14:09.260Z,0.90
2022-12-25T18:16:40.460Z,1.10
2022-12-25T18:19:08.290Z,1.00
2022-12-25T18:21:35.681Z,1.00
2022-12-25T18:24:05.194Z,1.08
2022-12-25T18:26:33.010Z,1.20
2022-12-25T18:29:00.837Z,0.90
2022-12-25T18:31:30.269Z,1.10
2022-12-25T18:33:59.301Z,1.10
2022-12-25T18:36:29.157Z,1.20
2022-12-25T18:38:57.787Z,0.90
2022-12-25T18:41:28.018Z,1.23
2022-12-25T18:43:55.980Z,1.40
2022-12-25T18:46:26.075Z,0.80
2022-12-25T18:48:55.864Z,1.30
2022-12-25T18:51:23.675Z,1.20
2022-12-25T18:53:51.246Z,1.00
2022-12-25T18:56:18.673Z,1.10
2022-12-25T18:58:46.915Z,1.30
2022-12-25T19:01:21.573Z,0.90
2022-12-25T19:03:50.304Z,1.02
2022-12-25T19:06:27.452Z,1.20
2022-12-25T19:08:56.297Z,1.20
2022-12-25T19:11:23.703Z,1.27
2022-12-25T19:13:50.833Z,1.20
2022-12-25T19:16:18.022Z,1.02
2022-12-25T19:18:45.576Z,1.10
2022-12-25T19:21:13.008Z,1.25
2022-12-25T19:23:40.469Z,1.10
2022-12-25T19:26:10.288Z,1.02
2022-12-25T19:28:38.627Z,1.27
2022-12-25T19:31:08.719Z,1.20
2022-12-25T19:33:38.991Z,1.50
2022-12-25T19:36:13.970Z,1.10
2022-12-25T19:38:41.479Z,1.15
2022-12-25T19:41:18.824Z,1.23
2022-12-25T19:43:48.571Z,0.95
2022-12-25T19:46:32.156Z,1.05
2022-12-25T19:49:04.187Z,0.80
2022-12-25T19:51:37.245Z,1.40
2022-12-25T19:54:06.007Z,1.17
2022-12-25T19:56:34.663Z,1.38
2022-12-25T19:59:01.833Z,1.10
2022-12-25T20:01:30.824Z,1.33
2022-12-25T20:03:59.393Z,1.33
2022-12-25T20:06:34.582Z,1.10
2022-12-25T20:09:07.122Z,1.30
2022-12-25T20:11:36.790Z,1.13
2022-12-25T20:14:06.802Z,1.73
2022-12-25T20:16:38.556Z,1.40
2022-12-25T20:19:07.061Z,1.50
2022-12-25T20:21:34.352Z,1.30
2022-12-25T20:24:01.710Z,1.17
2022-12-25T20:26:30.978Z,1.33
2022-12-25T20:28:59.382Z,1.70
2022-12-25T20:31:31.449Z,1.30
2022-12-25T20:34:04.175Z,1.23
2022-12-25T20:36:36.758Z,1.30
2022-12-25T20:39:09.649Z,1.30
2022-12-25T20:41:37.880Z,1.33
2022-12-25T20:44:06.786Z,1.50
2022-12-25T20:46:34.045Z,1.38
2022-12-25T20:49:02.598Z,1.38
2022-12-25T20:51:29.536Z,1.30
2022-12-25T20:53:56.848Z,1.20
2022-12-25T20:56:26.751Z,1.33
2022-12-25T20:58:57.271Z,1.20
2022-12-25T21:01:25.077Z,1.30
2022-12-25T21:03:53.427Z,1.45
2022-12-25T21:06:21.593Z,1.05
2022-12-25T21:08:48.807Z,1.20
2022-12-25T21:11:16.861Z,1.50
2022-12-25T21:13:46.129Z,1.60
2022-12-25T21:16:19.003Z,1.40
2022-12-25T21:18:46.891Z,1.25
2022-12-25T21:21:14.734Z,1.13
2022-12-25T21:23:42.100Z,1.30
2022-12-25T21:26:15.614Z,1.20
2022-12-25T21:28:42.777Z,1.42
2022-12-25T21:31:10.602Z,1.15
2022-12-25T21:33:53.226Z,1.45
2022-12-25T21:36:34.350Z,1.30
2022-12-25T21:39:08.045Z,1.30
2022-12-25T21:41:38.467Z,1.10
2022-12-25T21:44:06.923Z,1.15
2022-12-25T21:46:34.586Z,1.38
2022-12-25T21:49:03.129Z,1.40
2022-12-25T21:51:52.042Z,1.20
2022-12-25T21:54:22.542Z,1.17
2022-12-25T21:56:50.019Z,1.30
2022-12-25T21:59:22.364Z,1.23
2022-12-25T22:01:51.647Z,1.15
2022-12-25T22:04:21.992Z,1.50
2022-12-25T22:07:07.629Z,1.13
2022-12-25T22:09:35.053Z,1.20
2022-12-25T22:12:21.030Z,1.40
2022-12-25T22:14:54.174Z,1.20
2022-12-25T22:17:46.881Z,1.17
2022-12-25T22:20:30.752Z,1.00
2022-12-25T22:22:58.712Z,1.20
2022-12-25T22:25:26.077Z,1.13
2022-12-25T22:27:53.562Z,1.25
2022-12-25T22:30:27.054Z,1.27
2022-12-25T22:32:54.889Z,1.30
2022-12-25T22:35:22.553Z,1.00
2022-12-25T22:37:49.855Z,1.30
2022-12-25T22:40:19.018Z,1.10
2022-12-25T22:42:46.258Z,1.20
2022-12-25T22:45:13.658Z,1.23
2022-12-25T22:47:41.362Z,1.20
2022-12-25T22:50:09.318Z,1.02
2022-12-25T22:52:37.585Z,1.13
2022-12-25T22:55:07.676Z,1.10
2022-12-25T22:57:35.592Z,1.30
2022-12-25T23:00:03.517Z,1.15
2022-12-25T23:02:30.674Z,1.02
2022-12-25T23:04:57.794Z,1.35
2022-12-25T23:07:24.744Z,1.27
2022-12-25T23:09:51.632Z,1.10
2022-12-25T23:12:37.131Z,1.20
2022-12-25T23:15:04.575Z,0.90
2022-12-25T23:17:50.407Z,1.20
2022-12-25T23:20:35.806Z,1.00
2022-12-25T23:23:21.272Z,1.17
2022-12-25T23:26:07.171Z,1.10
2022-12-25T23:28:58.020Z,1.20
2022-12-25T23:31:35.718Z,1.33
2022-12-25T23:34:04.879Z,1.17
2022-12-25T23:36:32.674Z,0.95
2022-12-25T23:39:08.645Z,1.10
2022-12-25T23:41:38.360Z,1.00
2022-12-25T23:44:05.315Z,1.23
2022-12-25T23:46:32.326Z,1.27
2022-12-25T23:48:59.754Z,1.25
2022-12-25T23:51:26.726Z,1.10
2022-12-25T23:53:53.631Z,1.10
2022-12-25T23:56:20.632Z,1.20
2022-12-25T23:58:51.750Z,1.10
